sensor_id;sensor_type;location;lat;lon;timestamp;temperature;humidity
73780;SHT30;62093;37.614;15.072;2022-10-19T05:35:53;19.70;64.73
73780;SHT30;62093;37.614;15.072;2022-10-19T05:38:19;19.73;64.81
73780;SHT30;62093;37.614;15.072;2022-10-19T05:40:45;19.70;64.51
73780;SHT30;62093;37.614;15.072;2022-10-19T05:43:11;19.73;64.14
73780;SHT30;62093;37.614;15.072;2022-10-19T05:45:37;19.69;64.61
73780;SHT30;62093;37.614;15.072;2022-10-19T05:48:04;19.71;64.40
73780;SHT30;62093;37.614;15.072;2022-10-19T05:50:30;19.74;64.24
73780;SHT30;62093;37.614;15.072;2022-10-19T05:52:56;19.71;64.66
73780;SHT30;62093;37.614;15.072;2022-10-19T05:55:22;19.73;64.51
73780;SHT30;62093;37.614;15.072;2022-10-19T05:57:48;19.78;64.29
73780;SHT30;62093;37.614;15.072;2022-10-19T06:00:14;19.73;63.99
73780;SHT30;62093;37.614;15.072;2022-10-19T06:02:41;19.71;64.40
73780;SHT30;62093;37.614;15.072;2022-10-19T06:05:07;19.76;64.34
73780;SHT30;62093;37.614;15.072;2022-10-19T06:07:33;19.76;64.63
73780;SHT30;62093;37.614;15.072;2022-10-19T06:09:59;19.77;64.07
73780;SHT30;62093;37.614;15.072;2022-10-19T06:12:25;19.70;64.04
73780;SHT30;62093;37.614;15.072;2022-10-19T06:14:52;19.80;64.55
73780;SHT30;62093;37.614;15.072;2022-10-19T06:17:18;19.87;64.19
73780;SHT30;62093;37.614;15.072;2022-10-19T06:19:44;19.94;64.45
73780;SHT30;62093;37.614;15.072;2022-10-19T06:22:10;19.90;64.47
73780;SHT30;62093;37.614;15.072;2022-10-19T06:24:36;19.97;64.38
73780;SHT30;62093;37.614;15.072;2022-10-19T06:27:02;19.97;64.72
73780;SHT30;62093;37.614;15.072;2022-10-19T06:29:28;19.95;64.29
73780;SHT30;62093;37.614;15.072;2022-10-19T06:31:54;19.93;64.66
73780;SHT30;62093;37.614;15.072;2022-10-19T06:34:20;19.94;64.90
73780;SHT30;62093;37.614;15.072;2022-10-19T06:36:47;20.01;64.84
73780;SHT30;62093;37.614;15.072;2022-10-19T06:39:13;20.01;64.80
73780;SHT30;62093;37.614;15.072;2022-10-19T06:41:39;19.97;64.90
73780;SHT30;62093;37.614;15.072;2022-10-19T06:44:23;19.95;64.93
73780;SHT30;62093;37.614;15.072;2022-10-19T06:46:50;20.00;65.17
73780;SHT30;62093;37.614;15.072;2022-10-19T06:49:16;19.98;64.98
73780;SHT30;62093;37.614;15.072;2022-10-19T06:51:42;20.01;64.97
73780;SHT30;62093;37.614;15.072;2022-10-19T06:54:08;20.00;65.07
73780;SHT30;62093;37.614;15.072;2022-10-19T06:56:34;20.03;65.02
73780;SHT30;62093;37.614;15.072;2022-10-19T06:58:59;20.11;65.06
73780;SHT30;62093;37.614;15.072;2022-10-19T07:01:25;20.07;65.01
73780;SHT30;62093;37.614;15.072;2022-10-19T07:03:52;20.13;64.97
73780;SHT30;62093;37.614;15.072;2022-10-19T07:06:18;20.11;64.75
73780;SHT30;62093;37.614;15.072;2022-10-19T07:08:45;20.25;65.18
73780;SHT30;62093;37.614;15.072;2022-10-19T07:11:15;20.44;64.64
73780;SHT30;62093;37.614;15.072;2022-10-19T07:13:41;20.49;64.65
73780;SHT30;62093;37.614;15.072;2022-10-19T07:16:10;20.31;64.63
73780;SHT30;62093;37.614;15.072;2022-10-19T07:18:38;20.29;64.78
73780;SHT30;62093;37.614;15.072;2022-10-19T07:21:08;20.24;64.58
73780;SHT30;62093;37.614;15.072;2022-10-19T07:23:36;20.21;64.69
73780;SHT30;62093;37.614;15.072;2022-10-19T07:26:16;20.24;64.82
73780;SHT30;62093;37.614;15.072;2022-10-19T07:28:45;20.22;64.96
73780;SHT30;62093;37.614;15.072;2022-10-19T07:31:13;20.25;64.85
73780;SHT30;62093;37.614;15.072;2022-10-19T07:33:39;20.27;64.81
73780;SHT30;62093;37.614;15.072;2022-10-19T07:36:07;20.28;64.93
73780;SHT30;62093;37.614;15.072;2022-10-19T07:38:34;20.27;64.82
73780;SHT30;62093;37.614;15.072;2022-10-19T07:41:07;20.29;64.80
73780;SHT30;62093;37.614;15.072;2022-10-19T07:43:34;20.34;64.42
73780;SHT30;62093;37.614;15.072;2022-10-19T07:46:05;20.32;64.14
73780;SHT30;62093;37.614;15.072;2022-10-19T07:48:32;20.24;64.14
73780;SHT30;62093;37.614;15.072;2022-10-19T07:51:00;20.21;64.22
73780;SHT30;62093;37.614;15.072;2022-10-19T07:53:26;20.21;64.03
73780;SHT30;62093;37.614;15.072;2022-10-19T07:55:52;20.25;64.36
73780;SHT30;62093;37.614;15.072;2022-10-19T07:58:19;20.24;63.87
73780;SHT30;62093;37.614;15.072;2022-10-19T08:00:45;20.28;63.96
73780;SHT30;62093;37.614;15.072;2022-10-19T08:03:11;20.27;64.01
73780;SHT30;62093;37.614;15.072;2022-10-19T08:05:37;20.24;63.94
73780;SHT30;62093;37.614;15.072;2022-10-19T08:08:03;20.28;64.01
73780;SHT30;62093;37.614;15.072;2022-10-19T08:10:32;20.25;64.11
73780;SHT30;62093;37.614;15.072;2022-10-19T08:12:58;20.22;64.10
73780;SHT30;62093;37.614;15.072;2022-10-19T08:15:24;20.22;64.15
73780;SHT30;62093;37.614;15.072;2022-10-19T08:17:51;20.22;64.27
73780;SHT30;62093;37.614;15.072;2022-10-19T08:20:17;20.24;64.03
73780;SHT30;62093;37.614;15.072;2022-10-19T08:22:43;20.25;64.22
73780;SHT30;62093;37.614;15.072;2022-10-19T08:25:09;20.27;64.28
73780;SHT30;62093;37.614;15.072;2022-10-19T08:27:36;20.28;64.17
73780;SHT30;62093;37.614;15.072;2022-10-19T08:30:02;20.28;64.16
73780;SHT30;62093;37.614;15.072;2022-10-19T08:32:28;20.28;64.19
73780;SHT30;62093;37.614;15.072;2022-10-19T08:34:54;20.27;63.99
73780;SHT30;62093;37.614;15.072;2022-10-19T08:37:20;20.28;63.99
73780;SHT30;62093;37.614;15.072;2022-10-19T08:39:46;20.28;64.09
73780;SHT30;62093;37.614;15.072;2022-10-19T08:42:18;20.29;64.11
73780;SHT30;62093;37.614;15.072;2022-10-19T08:50:22;20.35;64.05
73780;SHT30;62093;37.614;15.072;2022-10-19T08:52:54;20.34;64.07
73780;SHT30;62093;37.614;15.072;2022-10-19T08:55:32;20.36;64.03
73780;SHT30;62093;37.614;15.072;2022-10-19T08:58:24;20.35;63.95
73780;SHT30;62093;37.614;15.072;2022-10-19T09:04:06;20.38;64.00
73780;SHT30;62093;37.614;15.072;2022-10-19T09:09:14;20.34;63.90
73780;SHT30;62093;37.614;15.072;2022-10-19T09:11:45;20.38;63.85
73780;SHT30;62093;37.614;15.072;2022-10-19T09:16:41;20.39;63.89
73780;SHT30;62093;37.614;15.072;2022-10-19T09:19:36;20.41;63.85
73780;SHT30;62093;37.614;15.072;2022-10-19T09:22:11;20.45;63.87
73780;SHT30;62093;37.614;15.072;2022-10-19T09:24:51;20.46;63.86
73780;SHT30;62093;37.614;15.072;2022-10-19T09:27:25;20.45;63.81
73780;SHT30;62093;37.614;15.072;2022-10-19T09:29:55;20.44;63.80
73780;SHT30;62093;37.614;15.072;2022-10-19T09:32:29;20.45;63.76
73780;SHT30;62093;37.614;15.072;2022-10-19T09:34:58;20.46;63.76
73780;SHT30;62093;37.614;15.072;2022-10-19T09:37:28;20.49;63.75
73780;SHT30;62093;37.614;15.072;2022-10-19T09:39:55;20.49;63.72
73780;SHT30;62093;37.614;15.072;2022-10-19T09:42:29;20.52;63.72
73780;SHT30;62093;37.614;15.072;2022-10-19T09:45:00;20.51;63.73
73780;SHT30;62093;37.614;15.072;2022-10-19T09:47:37;20.51;63.56
73780;SHT30;62093;37.614;15.072;2022-10-19T09:50:48;20.52;63.61
73780;SHT30;62093;37.614;15.072;2022-10-19T09:53:16;20.55;63.59
73780;SHT30;62093;37.614;15.072;2022-10-19T09:55:47;20.56;63.61
73780;SHT30;62093;37.614;15.072;2022-10-19T09:58:17;20.59;63.52
73780;SHT30;62093;37.614;15.072;2022-10-19T10:00:49;20.59;63.51
73780;SHT30;62093;37.614;15.072;2022-10-19T10:05:49;20.65;63.38
73780;SHT30;62093;37.614;15.072;2022-10-19T10:08:19;20.66;63.31
73780;SHT30;62093;37.614;15.072;2022-10-19T10:10:52;20.65;63.29
73780;SHT30;62093;37.614;15.072;2022-10-19T10:13:20;20.64;63.31
73780;SHT30;62093;37.614;15.072;2022-10-19T10:15:53;20.65;63.29
73780;SHT30;62093;37.614;15.072;2022-10-19T10:18:22;20.71;63.24
73780;SHT30;62093;37.614;15.072;2022-10-19T10:21:03;20.69;63.26
73780;SHT30;62093;37.614;15.072;2022-10-19T10:23:32;20.72;63.20
73780;SHT30;62093;37.614;15.072;2022-10-19T10:26:01;20.73;63.16
73780;SHT30;62093;37.614;15.072;2022-10-19T10:28:29;20.72;63.15
73780;SHT30;62093;37.614;15.072;2022-10-19T10:31:05;20.72;63.13
73780;SHT30;62093;37.614;15.072;2022-10-19T10:33:34;20.72;63.16
73780;SHT30;62093;37.614;15.072;2022-10-19T10:36:04;20.71;63.20
73780;SHT30;62093;37.614;15.072;2022-10-19T10:38:34;20.72;63.14
73780;SHT30;62093;37.614;15.072;2022-10-19T10:41:16;20.71;63.09
73780;SHT30;62093;37.614;15.072;2022-10-19T10:44:06;20.73;63.11
73780;SHT30;62093;37.614;15.072;2022-10-19T10:46:40;20.72;63.15
73780;SHT30;62093;37.614;15.072;2022-10-19T10:49:22;20.71;63.15
73780;SHT30;62093;37.614;15.072;2022-10-19T10:51:58;20.72;63.10
73780;SHT30;62093;37.614;15.072;2022-10-19T10:54:30;20.75;63.05
73780;SHT30;62093;37.614;15.072;2022-10-19T10:57:07;20.79;62.96
73780;SHT30;62093;37.614;15.072;2022-10-19T11:05:25;20.73;63.01
73780;SHT30;62093;37.614;15.072;2022-10-19T11:08:00;20.73;63.13
73780;SHT30;62093;37.614;15.072;2022-10-19T11:16:44;20.79;63.00
73780;SHT30;62093;37.614;15.072;2022-10-19T11:19:23;20.79;62.96
73780;SHT30;62093;37.614;15.072;2022-10-19T11:24:36;20.80;62.91
73780;SHT30;62093;37.614;15.072;2022-10-19T11:30:20;20.82;62.77
73780;SHT30;62093;37.614;15.072;2022-10-19T11:35:50;20.87;62.75
73780;SHT30;62093;37.614;15.072;2022-10-19T11:49:43;20.89;62.69
73780;SHT30;62093;37.614;15.072;2022-10-19T11:55:04;20.87;62.67
73780;SHT30;62093;37.614;15.072;2022-10-19T11:57:53;20.87;62.63
73780;SHT30;62093;37.614;15.072;2022-10-19T12:00:20;20.87;62.62
73780;SHT30;62093;37.614;15.072;2022-10-19T12:14:08;20.89;62.70
73780;SHT30;62093;37.614;15.072;2022-10-19T12:19:33;20.87;62.70
73780;SHT30;62093;37.614;15.072;2022-10-19T12:22:03;20.87;62.66
73780;SHT30;62093;37.614;15.072;2022-10-19T12:24:32;20.89;62.67
73780;SHT30;62093;37.614;15.072;2022-10-19T12:26:59;20.87;62.68
73780;SHT30;62093;37.614;15.072;2022-10-19T12:29:29;20.87;62.72
73780;SHT30;62093;37.614;15.072;2022-10-19T12:31:58;20.87;62.70
73780;SHT30;62093;37.614;15.072;2022-10-19T12:37:38;20.89;62.70
73780;SHT30;62093;37.614;15.072;2022-10-19T12:42:55;20.89;62.65
73780;SHT30;62093;37.614;15.072;2022-10-19T12:53:32;20.92;62.60
73780;SHT30;62093;37.614;15.072;2022-10-19T13:01:16;20.92;62.57
73780;SHT30;62093;37.614;15.072;2022-10-19T13:03:44;20.95;62.62
73780;SHT30;62093;37.614;15.072;2022-10-19T13:08:58;20.92;62.58
73780;SHT30;62093;37.614;15.072;2022-10-19T13:11:25;20.96;62.58
73780;SHT30;62093;37.614;15.072;2022-10-19T13:14:40;20.90;62.66
73780;SHT30;62093;37.614;15.072;2022-10-19T13:17:01;20.92;62.74
73780;SHT30;62093;37.614;15.072;2022-10-19T13:19:28;20.90;62.76
73780;SHT30;62093;37.614;15.072;2022-10-19T13:27:51;20.95;62.73
73780;SHT30;62093;37.614;15.072;2022-10-19T13:41:07;20.95;62.81
73780;SHT30;62093;37.614;15.072;2022-10-19T14:01:05;20.96;62.70
73780;SHT30;62093;37.614;15.072;2022-10-19T14:11:47;20.97;62.82
73780;SHT30;62093;37.614;15.072;2022-10-19T14:14:18;20.96;62.84
73780;SHT30;62093;37.614;15.072;2022-10-19T14:16:49;20.97;62.85
73780;SHT30;62093;37.614;15.072;2022-10-19T14:19:26;20.95;62.90
73780;SHT30;62093;37.614;15.072;2022-10-19T14:22:00;20.97;62.89
73780;SHT30;62093;37.614;15.072;2022-10-19T14:24:32;20.97;62.89
73780;SHT30;62093;37.614;15.072;2022-10-19T14:27:03;20.97;62.89
73780;SHT30;62093;37.614;15.072;2022-10-19T14:29:42;20.96;62.94
73780;SHT30;62093;37.614;15.072;2022-10-19T14:32:09;20.96;62.90
73780;SHT30;62093;37.614;15.072;2022-10-19T14:34:46;20.99;62.77
73780;SHT30;62093;37.614;15.072;2022-10-19T14:37:17;21.00;62.73
73780;SHT30;62093;37.614;15.072;2022-10-19T14:42:22;20.97;62.74
73780;SHT30;62093;37.614;15.072;2022-10-19T14:44:48;21.00;62.68
73780;SHT30;62093;37.614;15.072;2022-10-19T14:47:20;20.99;62.71
73780;SHT30;62093;37.614;15.072;2022-10-19T14:49:47;20.97;62.65
73780;SHT30;62093;37.614;15.072;2022-10-19T14:52:24;20.99;62.69
73780;SHT30;62093;37.614;15.072;2022-10-19T14:54:55;20.96;62.62
73780;SHT30;62093;37.614;15.072;2022-10-19T14:57:25;20.96;62.71
73780;SHT30;62093;37.614;15.072;2022-10-19T14:59:59;21.00;62.70
73780;SHT30;62093;37.614;15.072;2022-10-19T15:02:38;20.97;62.71
73780;SHT30;62093;37.614;15.072;2022-10-19T15:05:06;20.97;62.78
73780;SHT30;62093;37.614;15.072;2022-10-19T15:07:41;20.99;62.78
73780;SHT30;62093;37.614;15.072;2022-10-19T15:13:05;20.97;62.80
73780;SHT30;62093;37.614;15.072;2022-10-19T15:15:33;20.96;62.76
73780;SHT30;62093;37.614;15.072;2022-10-19T15:20:29;20.97;62.76
73780;SHT30;62093;37.614;15.072;2022-10-19T15:22:56;20.96;62.84
73780;SHT30;62093;37.614;15.072;2022-10-19T15:25:32;20.96;62.89
73780;SHT30;62093;37.614;15.072;2022-10-19T15:28:30;20.96;62.91
73780;SHT30;62093;37.614;15.072;2022-10-19T15:31:03;20.93;62.97
73780;SHT30;62093;37.614;15.072;2022-10-19T15:33:39;20.92;62.95
73780;SHT30;62093;37.614;15.072;2022-10-19T15:36:09;20.93;62.98
73780;SHT30;62093;37.614;15.072;2022-10-19T15:38:43;20.92;62.96
73780;SHT30;62093;37.614;15.072;2022-10-19T15:41:25;20.92;62.97
73780;SHT30;62093;37.614;15.072;2022-10-19T15:43:53;20.92;62.97
73780;SHT30;62093;37.614;15.072;2022-10-19T15:46:23;20.90;63.01
73780;SHT30;62093;37.614;15.072;2022-10-19T15:48:51;20.89;63.07
73780;SHT30;62093;37.614;15.072;2022-10-19T15:53:54;20.87;63.02
73780;SHT30;62093;37.614;15.072;2022-10-19T15:56:24;20.89;63.03
73780;SHT30;62093;37.614;15.072;2022-10-19T15:58:52;20.89;63.05
73780;SHT30;62093;37.614;15.072;2022-10-19T16:01:23;20.85;63.05
73780;SHT30;62093;37.614;15.072;2022-10-19T16:03:51;20.87;63.08
73780;SHT30;62093;37.614;15.072;2022-10-19T16:06:19;20.85;63.05
73780;SHT30;62093;37.614;15.072;2022-10-19T16:08:46;20.86;63.12
73780;SHT30;62093;37.614;15.072;2022-10-19T16:11:16;20.86;63.11
73780;SHT30;62093;37.614;15.072;2022-10-19T16:13:46;20.85;63.14
73780;SHT30;62093;37.614;15.072;2022-10-19T16:16:20;20.85;63.08
73780;SHT30;62093;37.614;15.072;2022-10-19T16:18:46;20.85;63.15
73780;SHT30;62093;37.614;15.072;2022-10-19T16:21:13;20.85;63.16
73780;SHT30;62093;37.614;15.072;2022-10-19T16:23:39;20.83;63.17
73780;SHT30;62093;37.614;15.072;2022-10-19T16:26:06;20.85;63.22
73780;SHT30;62093;37.614;15.072;2022-10-19T16:28:32;20.86;63.20
73780;SHT30;62093;37.614;15.072;2022-10-19T16:30:58;20.83;63.15
73780;SHT30;62093;37.614;15.072;2022-10-19T16:33:24;20.86;63.19
73780;SHT30;62093;37.614;15.072;2022-10-19T16:35:50;20.86;63.17
73780;SHT30;62093;37.614;15.072;2022-10-19T16:38:19;20.83;63.19
73780;SHT30;62093;37.614;15.072;2022-10-19T16:40:46;20.82;63.19
73780;SHT30;62093;37.614;15.072;2022-10-19T16:43:12;20.80;63.17
73780;SHT30;62093;37.614;15.072;2022-10-19T16:45:42;20.83;63.17
73780;SHT30;62093;37.614;15.072;2022-10-19T16:48:11;20.83;63.14
73780;SHT30;62093;37.614;15.072;2022-10-19T16:50:37;20.86;63.19
73780;SHT30;62093;37.614;15.072;2022-10-19T16:53:06;20.83;63.16
73780;SHT30;62093;37.614;15.072;2022-10-19T16:55:39;20.85;63.01
73780;SHT30;62093;37.614;15.072;2022-10-19T16:58:05;20.83;63.12
73780;SHT30;62093;37.614;15.072;2022-10-19T17:00:31;20.82;63.13
73780;SHT30;62093;37.614;15.072;2022-10-19T17:02:57;20.82;63.18
73780;SHT30;62093;37.614;15.072;2022-10-19T17:05:23;20.83;63.17
73780;SHT30;62093;37.614;15.072;2022-10-19T17:07:50;20.80;63.21
73780;SHT30;62093;37.614;15.072;2022-10-19T17:10:16;20.80;63.18
73780;SHT30;62093;37.614;15.072;2022-10-19T17:12:43;20.80;63.18
73780;SHT30;62093;37.614;15.072;2022-10-19T17:15:09;20.79;63.18
73780;SHT30;62093;37.614;15.072;2022-10-19T17:17:36;20.79;63.18
73780;SHT30;62093;37.614;15.072;2022-10-19T17:20:02;20.80;63.28
73780;SHT30;62093;37.614;15.072;2022-10-19T17:22:28;20.77;63.23
73780;SHT30;62093;37.614;15.072;2022-10-19T17:24:54;20.79;63.20
73780;SHT30;62093;37.614;15.072;2022-10-19T17:27:21;20.79;63.25
73780;SHT30;62093;37.614;15.072;2022-10-19T17:29:47;20.77;63.19
73780;SHT30;62093;37.614;15.072;2022-10-19T17:32:13;20.80;63.36
73780;SHT30;62093;37.614;15.072;2022-10-19T17:34:40;20.80;63.25
73780;SHT30;62093;37.614;15.072;2022-10-19T17:37:06;20.75;63.31
73780;SHT30;62093;37.614;15.072;2022-10-19T17:39:32;20.76;63.39
73780;SHT30;62093;37.614;15.072;2022-10-19T17:41:58;20.75;63.40
73780;SHT30;62093;37.614;15.072;2022-10-19T17:44:29;20.75;63.39
73780;SHT30;62093;37.614;15.072;2022-10-19T17:46:56;20.75;63.49
73780;SHT30;62093;37.614;15.072;2022-10-19T17:49:22;20.75;63.48
73780;SHT30;62093;37.614;15.072;2022-10-19T17:51:50;20.76;63.47
73780;SHT30;62093;37.614;15.072;2022-10-19T17:54:18;20.73;63.60
73780;SHT30;62093;37.614;15.072;2022-10-19T17:56:44;20.73;63.52
73780;SHT30;62093;37.614;15.072;2022-10-19T17:59:10;20.73;63.59
73780;SHT30;62093;37.614;15.072;2022-10-19T18:01:36;20.72;63.60
73780;SHT30;62093;37.614;15.072;2022-10-19T18:04:03;20.71;63.63
73780;SHT30;62093;37.614;15.072;2022-10-19T18:06:33;20.71;63.63
73780;SHT30;62093;37.614;15.072;2022-10-19T18:09:00;20.69;63.60
73780;SHT30;62093;37.614;15.072;2022-10-19T18:12:01;20.72;63.67
73780;SHT30;62093;37.614;15.072;2022-10-19T18:14:21;20.71;63.69
73780;SHT30;62093;37.614;15.072;2022-10-19T18:16:47;20.68;63.80
73780;SHT30;62093;37.614;15.072;2022-10-19T18:19:14;20.68;63.72
73780;SHT30;62093;37.614;15.072;2022-10-19T18:21:43;20.66;63.78
73780;SHT30;62093;37.614;15.072;2022-10-19T18:24:15;20.69;63.78
73780;SHT30;62093;37.614;15.072;2022-10-19T18:26:44;20.65;63.79
73780;SHT30;62093;37.614;15.072;2022-10-19T18:29:14;20.66;63.80
73780;SHT30;62093;37.614;15.072;2022-10-19T18:31:41;20.68;63.77
73780;SHT30;62093;37.614;15.072;2022-10-19T18:34:13;20.66;63.85
73780;SHT30;62093;37.614;15.072;2022-10-19T18:36:39;20.68;63.88
73780;SHT30;62093;37.614;15.072;2022-10-19T18:39:05;20.68;63.88
73780;SHT30;62093;37.614;15.072;2022-10-19T18:41:32;20.66;63.88
73780;SHT30;62093;37.614;15.072;2022-10-19T18:44:00;20.69;63.87
73780;SHT30;62093;37.614;15.072;2022-10-19T18:46:30;20.65;63.88
73780;SHT30;62093;37.614;15.072;2022-10-19T18:48:58;20.69;63.87
73780;SHT30;62093;37.614;15.072;2022-10-19T18:51:25;20.65;63.90
73780;SHT30;62093;37.614;15.072;2022-10-19T18:53:52;20.66;63.96
73780;SHT30;62093;37.614;15.072;2022-10-19T18:56:19;20.66;63.96
73780;SHT30;62093;37.614;15.072;2022-10-19T18:58:45;20.66;63.92
73780;SHT30;62093;37.614;15.072;2022-10-19T19:01:15;20.65;64.00
73780;SHT30;62093;37.614;15.072;2022-10-19T19:03:43;20.64;63.99
73780;SHT30;62093;37.614;15.072;2022-10-19T19:06:13;20.64;64.05
73780;SHT30;62093;37.614;15.072;2022-10-19T19:08:39;20.65;64.05
73780;SHT30;62093;37.614;15.072;2022-10-19T19:11:26;20.64;64.05
73780;SHT30;62093;37.614;15.072;2022-10-19T19:13:56;20.64;64.11
73780;SHT30;62093;37.614;15.072;2022-10-19T19:16:23;20.65;64.17
73780;SHT30;62093;37.614;15.072;2022-10-19T19:18:50;20.62;64.14
73780;SHT30;62093;37.614;15.072;2022-10-19T19:21:19;20.64;64.23
73780;SHT30;62093;37.614;15.072;2022-10-19T19:23:46;20.61;64.19
73780;SHT30;62093;37.614;15.072;2022-10-19T19:26:13;20.61;64.28
73780;SHT30;62093;37.614;15.072;2022-10-19T19:28:41;20.59;64.38
73780;SHT30;62093;37.614;15.072;2022-10-19T19:31:08;20.61;64.29
73780;SHT30;62093;37.614;15.072;2022-10-19T19:33:37;20.61;64.27
73780;SHT30;62093;37.614;15.072;2022-10-19T19:36:05;20.62;64.22
73780;SHT30;62093;37.614;15.072;2022-10-19T19:38:31;20.61;64.27
73780;SHT30;62093;37.614;15.072;2022-10-19T19:40:57;20.64;64.23
73780;SHT30;62093;37.614;15.072;2022-10-19T19:43:26;20.61;64.31
73780;SHT30;62093;37.614;15.072;2022-10-19T19:46:00;20.64;64.29
73780;SHT30;62093;37.614;15.072;2022-10-19T19:48:27;20.62;64.24
73780;SHT30;62093;37.614;15.072;2022-10-19T19:50:53;20.61;64.33
73780;SHT30;62093;37.614;15.072;2022-10-19T19:53:19;20.61;64.38
73780;SHT30;62093;37.614;15.072;2022-10-19T19:55:46;20.59;64.44
73780;SHT30;62093;37.614;15.072;2022-10-19T19:58:13;20.62;64.34
73780;SHT30;62093;37.614;15.072;2022-10-19T20:00:41;20.61;64.37
73780;SHT30;62093;37.614;15.072;2022-10-19T20:03:07;20.61;64.34
73780;SHT30;62093;37.614;15.072;2022-10-19T20:05:34;20.61;64.33
73780;SHT30;62093;37.614;15.072;2022-10-19T20:08:00;20.61;64.35
73780;SHT30;62093;37.614;15.072;2022-10-19T20:10:26;20.59;64.43
73780;SHT30;62093;37.614;15.072;2022-10-19T20:12:52;20.61;64.44
73780;SHT30;62093;37.614;15.072;2022-10-19T20:15:18;20.59;64.38
73780;SHT30;62093;37.614;15.072;2022-10-19T20:17:45;20.61;64.38
73780;SHT30;62093;37.614;15.072;2022-10-19T20:20:13;20.59;64.41
73780;SHT30;62093;37.614;15.072;2022-10-19T20:22:44;20.58;64.41
73780;SHT30;62093;37.614;15.072;2022-10-19T20:25:11;20.56;64.43
73780;SHT30;62093;37.614;15.072;2022-10-19T20:27:37;20.61;64.35
73780;SHT30;62093;37.614;15.072;2022-10-19T20:30:04;20.62;64.40
73780;SHT30;62093;37.614;15.072;2022-10-19T20:32:30;20.62;64.30
73780;SHT30;62093;37.614;15.072;2022-10-19T20:34:56;20.58;64.37
73780;SHT30;62093;37.614;15.072;2022-10-19T20:37:23;20.56;64.26
73780;SHT30;62093;37.614;15.072;2022-10-19T20:39:50;20.58;64.24
73780;SHT30;62093;37.614;15.072;2022-10-19T20:42:17;20.58;64.26
73780;SHT30;62093;37.614;15.072;2022-10-19T20:44:43;20.58;64.30
73780;SHT30;62093;37.614;15.072;2022-10-19T20:47:10;20.55;64.29
73780;SHT30;62093;37.614;15.072;2022-10-19T20:49:36;20.55;64.30
73780;SHT30;62093;37.614;15.072;2022-10-19T20:52:02;20.55;64.46
73780;SHT30;62093;37.614;15.072;2022-10-19T20:54:29;20.51;64.36
73780;SHT30;62093;37.614;15.072;2022-10-19T20:56:56;20.52;64.34
73780;SHT30;62093;37.614;15.072;2022-10-19T20:59:22;20.53;64.33
73780;SHT30;62093;37.614;15.072;2022-10-19T21:01:56;20.53;64.30
73780;SHT30;62093;37.614;15.072;2022-10-19T21:04:24;20.52;64.34
73780;SHT30;62093;37.614;15.072;2022-10-19T21:06:52;20.52;64.31
73780;SHT30;62093;37.614;15.072;2022-10-19T21:09:22;20.49;64.33
73780;SHT30;62093;37.614;15.072;2022-10-19T21:11:49;20.48;64.05
73780;SHT30;62093;37.614;15.072;2022-10-19T21:14:21;20.48;64.19
73780;SHT30;62093;37.614;15.072;2022-10-19T21:16:47;20.52;64.13
73780;SHT30;62093;37.614;15.072;2022-10-19T21:19:16;20.51;64.33
73780;SHT30;62093;37.614;15.072;2022-10-19T21:21:47;20.49;64.24
73780;SHT30;62093;37.614;15.072;2022-10-19T21:24:19;20.45;64.23
73780;SHT30;62093;37.614;15.072;2022-10-19T21:26:46;20.46;64.28
73780;SHT30;62093;37.614;15.072;2022-10-19T21:29:13;20.51;64.27
73780;SHT30;62093;37.614;15.072;2022-10-19T21:31:42;20.48;64.34
73780;SHT30;62093;37.614;15.072;2022-10-19T21:34:13;20.44;64.41
73780;SHT30;62093;37.614;15.072;2022-10-19T21:36:40;20.44;64.25
73780;SHT30;62093;37.614;15.072;2022-10-19T21:39:06;20.41;64.33
73780;SHT30;62093;37.614;15.072;2022-10-19T21:41:32;20.45;64.09
73780;SHT30;62093;37.614;15.072;2022-10-19T21:43:59;20.44;63.95
73780;SHT30;62093;37.614;15.072;2022-10-19T21:46:25;20.46;64.02
73780;SHT30;62093;37.614;15.072;2022-10-19T21:48:53;20.42;64.13
73780;SHT30;62093;37.614;15.072;2022-10-19T21:51:42;20.41;64.24
73780;SHT30;62093;37.614;15.072;2022-10-19T21:54:12;20.41;64.09
73780;SHT30;62093;37.614;15.072;2022-10-19T21:56:39;20.42;64.27
73780;SHT30;62093;37.614;15.072;2022-10-19T21:59:05;20.41;64.08
73780;SHT30;62093;37.614;15.072;2022-10-19T22:01:31;20.42;64.24
73780;SHT30;62093;37.614;15.072;2022-10-19T22:04:02;20.39;64.26
73780;SHT30;62093;37.614;15.072;2022-10-19T22:06:30;20.41;64.25
73780;SHT30;62093;37.614;15.072;2022-10-19T22:08:58;20.41;64.17
73780;SHT30;62093;37.614;15.072;2022-10-19T22:11:25;20.39;64.18
73780;SHT30;62093;37.614;15.072;2022-10-19T22:13:56;20.36;64.27
73780;SHT30;62093;37.614;15.072;2022-10-19T22:16:23;20.36;64.44
73780;SHT30;62093;37.614;15.072;2022-10-19T22:18:49;20.36;64.32
73780;SHT30;62093;37.614;15.072;2022-10-19T22:21:22;20.35;64.23
73780;SHT30;62093;37.614;15.072;2022-10-19T22:23:50;20.38;64.28
73780;SHT30;62093;37.614;15.072;2022-10-19T22:26:26;20.34;64.19
73780;SHT30;62093;37.614;15.072;2022-10-19T22:28:58;20.36;64.00
73780;SHT30;62093;37.614;15.072;2022-10-19T22:31:26;20.35;64.27
73780;SHT30;62093;37.614;15.072;2022-10-19T22:33:53;20.29;64.40
73780;SHT30;62093;37.614;15.072;2022-10-19T22:36:19;20.34;64.21
73780;SHT30;62093;37.614;15.072;2022-10-19T22:38:45;20.36;64.28
73780;SHT30;62093;37.614;15.072;2022-10-19T22:41:12;20.36;64.26
73780;SHT30;62093;37.614;15.072;2022-10-19T22:43:38;20.34;64.12
73780;SHT30;62093;37.614;15.072;2022-10-19T22:46:04;20.38;64.24
73780;SHT30;62093;37.614;15.072;2022-10-19T22:48:30;20.39;64.25
73780;SHT30;62093;37.614;15.072;2022-10-19T22:50:56;20.35;64.18
73780;SHT30;62093;37.614;15.072;2022-10-19T22:53:22;20.38;64.28
73780;SHT30;62093;37.614;15.072;2022-10-19T22:55:49;20.38;64.15
73780;SHT30;62093;37.614;15.072;2022-10-19T22:58:17;20.39;64.21
73780;SHT30;62093;37.614;15.072;2022-10-19T23:00:44;20.36;64.39
73780;SHT30;62093;37.614;15.072;2022-10-19T23:03:10;20.35;64.31
73780;SHT30;62093;37.614;15.072;2022-10-19T23:05:36;20.34;64.29
73780;SHT30;62093;37.614;15.072;2022-10-19T23:08:02;20.35;64.32
73780;SHT30;62093;37.614;15.072;2022-10-19T23:10:28;20.34;64.26
73780;SHT30;62093;37.614;15.072;2022-10-19T23:12:54;20.35;64.12
73780;SHT30;62093;37.614;15.072;2022-10-19T23:15:20;20.35;64.04
73780;SHT30;62093;37.614;15.072;2022-10-19T23:17:47;20.35;64.27
73780;SHT30;62093;37.614;15.072;2022-10-19T23:20:13;20.31;64.32
73780;SHT30;62093;37.614;15.072;2022-10-19T23:22:39;20.35;64.25